Time;durP1;ratioP1;P1;durP2;ratioP2;P2;SDS_P1;SDS_P2;PMS_P1;PMS_P2;Temp;Humidity;BMP_temperature;BMP_pressure;BME280_temperature;BME280_humidity;BME280_pressure;Samples;Min_cycle;Max_cycle;Signal;HPM_P1;HPM_P2
2021/04/16 00:02:21;;;;;;;9.35;1.17;;;;;;;;;;4986895;28;20053;-60
2021/04/16 00:04:47;;;;;;;6.43;0.90;;;;;;;;;;4988152;28;21972;-59
2021/04/16 00:07:13;;;;;;;6.75;0.82;;;;;;;;;;4986523;28;20503;-60
2021/04/16 00:09:39;;;;;;;6.28;0.95;;;;;;;;;;4986397;28;20049;-59
2021/04/16 00:12:05;;;;;;;6.07;1.25;;;;;;;;;;4988495;28;20058;-59
2021/04/16 00:14:31;;;;;;;10.65;1.35;;;;;;;;;;4987660;28;20038;-59
2021/04/16 00:16:57;;;;;;;6.93;0.90;;;;;;;;;;4987909;28;20086;-58
2021/04/16 00:19:23;;;;;;;7.20;1.30;;;;;;;;;;4986553;28;20077;-57
2021/04/16 00:21:49;;;;;;;6.70;1.38;;;;;;;;;;4989714;28;21045;-58
2021/04/16 00:24:15;;;;;;;3.97;1.17;;;;;;;;;;4991319;28;20084;-58
2021/04/16 00:26:41;;;;;;;5.75;1.20;;;;;;;;;;4991053;28;20073;-58
2021/04/16 00:29:07;;;;;;;4.28;1.02;;;;;;;;;;4990171;28;20129;-58
2021/04/16 00:31:34;;;;;;;7.65;1.75;;;;;;;;;;4987107;28;20067;-56
2021/04/16 00:34:00;;;;;;;8.63;1.40;;;;;;;;;;4986931;28;20141;-56
2021/04/16 00:36:26;;;;;;;5.43;0.90;;;;;;;;;;4985575;28;20391;-56
2021/04/16 00:38:52;;;;;;;13.57;1.50;;;;;;;;;;4988981;28;20046;-57
2021/04/16 00:41:20;;;;;;;8.00;1.38;;;;;;;;;;4988043;28;20482;-57
2021/04/16 00:43:46;;;;;;;10.10;1.45;;;;;;;;;;4988325;28;20034;-56
2021/04/16 00:46:12;;;;;;;7.53;1.27;;;;;;;;;;4988749;28;20061;-57
2021/04/16 00:48:57;;;;;;;8.10;1.10;;;;;;;;;;4989627;28;21067;-57
2021/04/16 00:51:26;;;;;;;5.82;1.10;;;;;;;;;;4986262;28;20195;-57
2021/04/16 00:53:53;;;;;;;6.40;1.00;;;;;;;;;;4989272;28;20049;-57
2021/04/16 00:56:19;;;;;;;10.40;1.27;;;;;;;;;;4987158;28;20558;-57
2021/04/16 00:58:45;;;;;;;5.28;1.13;;;;;;;;;;4988121;28;20038;-56
2021/04/16 01:01:11;;;;;;;7.90;1.20;;;;;;;;;;4987136;28;20042;-57
2021/04/16 01:03:37;;;;;;;7.88;1.80;;;;;;;;;;4987537;28;20046;-56
2021/04/16 01:06:05;;;;;;;13.63;1.27;;;;;;;;;;4986625;28;20162;-56
2021/04/16 01:08:32;;;;;;;5.30;1.48;;;;;;;;;;4986716;28;20042;-57
2021/04/16 01:10:58;;;;;;;9.52;1.50;;;;;;;;;;4985285;28;20137;-58
2021/04/16 01:13:24;;;;;;;9.05;1.38;;;;;;;;;;4983635;28;20048;-58
2021/04/16 01:15:55;;;;;;;7.63;1.10;;;;;;;;;;4985785;28;20049;-57
2021/04/16 01:18:23;;;;;;;4.32;0.93;;;;;;;;;;4985914;28;20052;-56
2021/04/16 01:20:50;;;;;;;8.30;1.63;;;;;;;;;;4985900;28;20089;-57
2021/04/16 01:23:23;;;;;;;6.35;1.30;;;;;;;;;;4987159;28;20043;-57
2021/04/16 01:25:49;;;;;;;4.03;0.70;;;;;;;;;;4985551;28;20617;-56
2021/04/16 01:28:15;;;;;;;8.60;1.10;;;;;;;;;;4986970;28;20046;-57
2021/04/16 01:31:01;;;;;;;7.13;1.27;;;;;;;;;;4983168;28;20054;-57
2021/04/16 01:33:28;;;;;;;15.07;1.42;;;;;;;;;;4985333;28;20134;-58
2021/04/16 01:35:54;;;;;;;32.60;2.42;;;;;;;;;;4986332;28;20414;-58
2021/04/16 01:38:20;;;;;;;7.70;1.10;;;;;;;;;;4985846;28;20057;-58
2021/04/16 01:40:46;;;;;;;10.07;1.35;;;;;;;;;;4986189;28;20049;-58
2021/04/16 01:43:25;;;;;;;10.60;1.70;;;;;;;;;;4989284;28;20050;-57
2021/04/16 01:46:06;;;;;;;13.63;1.60;;;;;;;;;;4990460;28;20527;-58
2021/04/16 01:48:38;;;;;;;6.68;1.73;;;;;;;;;;4989731;28;20057;-58
2021/04/16 01:51:05;;;;;;;9.73;1.45;;;;;;;;;;4987758;28;20054;-57
2021/04/16 01:53:31;;;;;;;7.22;1.13;;;;;;;;;;4987660;28;20049;-58
2021/04/16 01:55:57;;;;;;;9.20;1.95;;;;;;;;;;4990815;28;20474;-58
2021/04/16 01:58:23;;;;;;;10.82;1.45;;;;;;;;;;4991354;28;20128;-59
2021/04/16 02:00:49;;;;;;;14.50;1.52;;;;;;;;;;4990385;28;20089;-59
2021/04/16 02:03:14;;;;;;;12.98;1.60;;;;;;;;;;4991725;28;20121;-59
2021/04/16 02:05:40;;;;;;;16.52;1.90;;;;;;;;;;4990408;28;20072;-59
2021/04/16 02:08:06;;;;;;;14.00;1.73;;;;;;;;;;4990175;28;20034;-59
2021/04/16 02:10:32;;;;;;;12.82;1.58;;;;;;;;;;4990335;28;20750;-59
2021/04/16 02:12:58;;;;;;;12.00;1.70;;;;;;;;;;4990005;28;20411;-59
2021/04/16 02:15:24;;;;;;;18.17;1.90;;;;;;;;;;4990086;28;20034;-59
2021/04/16 02:17:50;;;;;;;10.95;1.55;;;;;;;;;;4990005;28;20038;-58
2021/04/16 02:20:18;;;;;;;7.97;1.77;;;;;;;;;;4989924;28;20030;-59
2021/04/16 02:22:43;;;;;;;12.68;1.67;;;;;;;;;;4989232;28;20049;-59
2021/04/16 02:25:10;;;;;;;20.00;3.47;;;;;;;;;;4988530;28;20042;-58
2021/04/16 02:27:36;;;;;;;9.68;1.65;;;;;;;;;;4985702;28;20685;-57
2021/04/16 02:30:04;;;;;;;9.25;1.60;;;;;;;;;;4987821;28;20042;-56
2021/04/16 02:32:30;;;;;;;19.52;2.47;;;;;;;;;;4985369;28;20100;-58
2021/04/16 02:34:55;;;;;;;9.20;1.95;;;;;;;;;;4986820;28;20048;-58
2021/04/16 02:37:22;;;;;;;15.02;1.83;;;;;;;;;;4986268;28;20042;-59
2021/04/16 02:39:48;;;;;;;6.30;1.60;;;;;;;;;;4985416;28;20050;-58
2021/04/16 02:42:14;;;;;;;7.47;1.42;;;;;;;;;;4988139;28;20069;-59
2021/04/16 02:44:42;;;;;;;17.08;1.73;;;;;;;;;;4988204;28;20038;-58
2021/04/16 02:47:08;;;;;;;8.38;1.42;;;;;;;;;;4987370;28;20348;-58
2021/04/16 02:49:34;;;;;;;8.27;1.30;;;;;;;;;;4986922;28;20049;-57
2021/04/16 02:51:59;;;;;;;7.63;1.42;;;;;;;;;;4986721;28;20052;-57
2021/04/16 02:54:25;;;;;;;8.48;1.50;;;;;;;;;;4987278;28;20042;-56
2021/04/16 02:56:51;;;;;;;7.07;1.40;;;;;;;;;;4983033;28;20076;-58
2021/04/16 02:59:18;;;;;;;9.02;1.40;;;;;;;;;;4988473;28;20125;-58
2021/04/16 03:01:44;;;;;;;8.90;1.30;;;;;;;;;;4989668;28;20038;-59
2021/04/16 03:04:10;;;;;;;38.70;2.30;;;;;;;;;;4979992;28;20096;-58
2021/04/16 03:06:36;;;;;;;12.05;2.00;;;;;;;;;;4989320;28;20538;-59
2021/04/16 03:09:03;;;;;;;5.13;1.58;;;;;;;;;;4988611;28;20052;-59
2021/04/16 03:11:29;;;;;;;11.05;1.88;;;;;;;;;;4988682;28;20052;-57
2021/04/16 03:13:55;;;;;;;8.73;1.70;;;;;;;;;;4973537;28;20038;-58
2021/04/16 03:16:26;;;;;;;10.55;1.70;;;;;;;;;;4986516;28;20503;-57
2021/04/16 03:18:52;;;;;;;9.43;2.95;;;;;;;;;;4986535;28;20042;-58
2021/04/16 03:21:18;;;;;;;8.25;1.50;;;;;;;;;;4985145;28;20042;-59
2021/04/16 03:23:44;;;;;;;5.95;1.60;;;;;;;;;;4984366;28;20042;-59
2021/04/16 03:26:10;;;;;;;8.90;1.67;;;;;;;;;;4988224;28;20038;-58
2021/04/16 03:28:35;;;;;;;7.30;1.40;;;;;;;;;;4987284;28;20137;-58
2021/04/16 03:31:02;;;;;;;6.97;1.33;;;;;;;;;;4987483;28;20062;-59
2021/04/16 03:33:28;;;;;;;5.07;1.42;;;;;;;;;;4986090;28;20054;-59
2021/04/16 03:35:53;;;;;;;13.88;1.25;;;;;;;;;;4986150;28;20049;-59
2021/04/16 03:38:19;;;;;;;5.95;1.17;;;;;;;;;;4987329;28;20034;-59
2021/04/16 03:40:46;;;;;;;5.20;1.70;;;;;;;;;;4985084;28;20157;-58
2021/04/16 03:43:12;;;;;;;3.58;1.02;;;;;;;;;;4985184;28;20030;-59
2021/04/16 03:45:38;;;;;;;9.30;1.30;;;;;;;;;;4985052;28;20088;-59
2021/04/16 03:48:04;;;;;;;4.18;0.95;;;;;;;;;;4986035;28;20046;-58
2021/04/16 03:50:32;;;;;;;6.50;1.20;;;;;;;;;;4983802;28;20038;-58
2021/04/16 03:52:58;;;;;;;6.72;1.30;;;;;;;;;;4984574;28;20048;-59
2021/04/16 03:55:25;;;;;;;5.68;1.40;;;;;;;;;;4983747;28;20038;-59
2021/04/16 03:57:52;;;;;;;9.88;1.33;;;;;;;;;;4985051;28;20039;-58
2021/04/16 04:00:19;;;;;;;9.10;1.33;;;;;;;;;;4983827;28;20514;-58
2021/04/16 04:02:45;;;;;;;13.85;2.58;;;;;;;;;;4985968;28;20507;-59
2021/04/16 04:05:11;;;;;;;17.13;3.70;;;;;;;;;;4984675;28;20069;-58
2021/04/16 04:07:37;;;;;;;8.95;2.00;;;;;;;;;;4985084;28;20057;-58
2021/04/16 04:10:04;;;;;;;12.98;1.58;;;;;;;;;;4983599;28;20042;-59
2021/04/16 04:12:29;;;;;;;13.45;2.30;;;;;;;;;;4982550;28;20841;-59
2021/04/16 04:14:55;;;;;;;8.27;1.52;;;;;;;;;;4985644;28;20038;-59
2021/04/16 04:17:24;;;;;;;15.68;1.80;;;;;;;;;;4982926;28;20046;-58
2021/04/16 04:19:49;;;;;;;10.75;1.40;;;;;;;;;;4984093;28;20050;-58
2021/04/16 04:22:15;;;;;;;11.15;1.45;;;;;;;;;;4982893;28;20096;-58
2021/04/16 04:24:41;;;;;;;10.65;1.45;;;;;;;;;;4983007;28;20030;-57
2021/04/16 04:27:08;;;;;;;9.65;1.30;;;;;;;;;;4983423;28;20045;-57
2021/04/16 04:29:34;;;;;;;8.57;1.90;;;;;;;;;;4986667;28;20065;-59
2021/04/16 04:31:59;;;;;;;11.73;1.40;;;;;;;;;;4984714;28;20132;-58
2021/04/16 04:34:27;;;;;;;11.07;1.40;;;;;;;;;;4985777;28;20042;-58
2021/04/16 04:36:54;;;;;;;7.32;1.50;;;;;;;;;;4987247;28;20397;-56
2021/04/16 04:39:21;;;;;;;10.60;1.70;;;;;;;;;;4985082;28;20089;-58
2021/04/16 04:41:47;;;;;;;9.48;1.50;;;;;;;;;;4985608;28;20356;-59
2021/04/16 04:44:14;;;;;;;7.35;1.35;;;;;;;;;;4987243;28;20206;-57
2021/04/16 04:46:40;;;;;;;7.75;1.70;;;;;;;;;;4986462;28;20077;-59
2021/04/16 04:49:06;;;;;;;8.52;1.70;;;;;;;;;;4987322;28;20042;-58
2021/04/16 04:51:33;;;;;;;3.80;1.48;;;;;;;;;;4983620;28;20038;-59
2021/04/16 04:53:59;;;;;;;5.93;1.60;;;;;;;;;;4986670;28;20045;-59
2021/04/16 04:56:25;;;;;;;10.95;1.55;;;;;;;;;;4988775;28;20065;-58
2021/04/16 04:58:51;;;;;;;9.23;2.60;;;;;;;;;;4988858;28;20038;-59
2021/04/16 05:01:17;;;;;;;6.93;2.67;;;;;;;;;;4989431;28;20041;-58
2021/04/16 05:03:43;;;;;;;7.35;1.88;;;;;;;;;;4989640;28;20043;-58
2021/04/16 05:06:08;;;;;;;7.63;2.03;;;;;;;;;;4987354;28;20057;-58
2021/04/16 05:08:34;;;;;;;9.48;2.33;;;;;;;;;;4987853;28;20065;-58
2021/04/16 05:11:01;;;;;;;6.60;2.20;;;;;;;;;;4987506;28;20057;-59
2021/04/16 05:13:27;;;;;;;7.57;2.40;;;;;;;;;;4988354;28;20152;-58
2021/04/16 05:15:53;;;;;;;7.40;2.50;;;;;;;;;;4989674;28;20456;-58
2021/04/16 05:18:19;;;;;;;7.03;2.35;;;;;;;;;;4992336;28;20037;-57
2021/04/16 05:20:45;;;;;;;12.55;2.88;;;;;;;;;;4991908;28;22005;-58
2021/04/16 05:23:11;;;;;;;10.35;3.05;;;;;;;;;;4992959;28;20496;-59
2021/04/16 05:25:37;;;;;;;9.32;3.42;;;;;;;;;;4993428;28;20046;-57
2021/04/16 05:28:03;;;;;;;10.13;3.05;;;;;;;;;;4982568;28;20061;-58
2021/04/16 05:30:29;;;;;;;31.55;3.65;;;;;;;;;;4990760;28;20035;-57
2021/04/16 05:32:55;;;;;;;17.45;2.70;;;;;;;;;;4991664;28;20072;-58
2021/04/16 05:35:21;;;;;;;12.50;2.30;;;;;;;;;;4990315;28;20053;-57
2021/04/16 05:37:48;;;;;;;12.68;4.38;;;;;;;;;;4992003;28;20272;-57
2021/04/16 05:40:14;;;;;;;10.50;3.20;;;;;;;;;;4991535;28;20061;-55
2021/04/16 05:42:40;;;;;;;11.70;2.30;;;;;;;;;;4990771;28;20050;-57
2021/04/16 05:45:06;;;;;;;15.38;2.55;;;;;;;;;;4991093;28;20046;-57
2021/04/16 05:47:32;;;;;;;12.05;2.00;;;;;;;;;;4991009;28;20058;-57
2021/04/16 05:49:58;;;;;;;6.72;1.88;;;;;;;;;;4990046;28;21052;-56
2021/04/16 05:52:24;;;;;;;13.25;1.95;;;;;;;;;;4989378;28;20138;-57
2021/04/16 05:54:50;;;;;;;9.52;1.60;;;;;;;;;;4991979;28;20107;-55
2021/04/16 05:57:16;;;;;;;9.80;1.65;;;;;;;;;;4990849;28;20121;-56
2021/04/16 05:59:43;;;;;;;11.25;2.03;;;;;;;;;;4991151;28;20053;-54
2021/04/16 06:02:29;;;;;;;12.38;2.15;;;;;;;;;;4991217;28;20727;-55
2021/04/16 06:04:55;;;;;;;12.73;2.15;;;;;;;;;;4990438;28;20232;-57
2021/04/16 06:07:23;;;;;;;13.85;2.20;;;;;;;;;;4991550;28;20670;-57
2021/04/16 06:09:50;;;;;;;12.05;3.00;;;;;;;;;;4992686;28;20077;-58
2021/04/16 06:12:16;;;;;;;13.07;2.35;;;;;;;;;;4989367;28;20054;-57
2021/04/16 06:14:42;;;;;;;8.27;2.00;;;;;;;;;;4991047;28;20149;-57
2021/04/16 06:17:09;;;;;;;7.18;2.00;;;;;;;;;;4992459;28;20053;-57
2021/04/16 06:19:34;;;;;;;76.95;4.68;;;;;;;;;;4990596;28;20084;-58
2021/04/16 06:22:00;;;;;;;26.85;2.67;;;;;;;;;;4988693;28;20185;-57
2021/04/16 06:24:26;;;;;;;6.35;1.67;;;;;;;;;;4990281;28;20034;-59
2021/04/16 06:26:52;;;;;;;10.23;2.00;;;;;;;;;;4991342;28;20042;-58
2021/04/16 06:29:18;;;;;;;11.93;2.03;;;;;;;;;;4991776;28;20073;-57
2021/04/16 06:31:44;;;;;;;8.40;1.90;;;;;;;;;;4990569;28;20503;-59
2021/04/16 06:34:10;;;;;;;8.90;2.22;;;;;;;;;;4991239;28;20035;-57
2021/04/16 06:36:36;;;;;;;11.30;2.67;;;;;;;;;;4991374;28;20914;-58
2021/04/16 06:39:02;;;;;;;10.77;2.17;;;;;;;;;;4992288;28;20046;-58
2021/04/16 06:41:32;;;;;;;42.58;4.22;;;;;;;;;;4988449;28;20410;-57
2021/04/16 06:44:00;;;;;;;17.55;2.63;;;;;;;;;;4990102;28;20066;-59
2021/04/16 06:46:28;;;;;;;19.60;2.90;;;;;;;;;;4991552;28;20089;-58
2021/04/16 06:49:02;;;;;;;18.50;2.20;;;;;;;;;;4975043;28;20457;-58
2021/04/16 06:51:29;;;;;;;9.20;1.98;;;;;;;;;;4989516;28;20064;-58
2021/04/16 06:53:58;;;;;;;18.55;3.15;;;;;;;;;;4989187;28;20041;-57
2021/04/16 06:56:44;;;;;;;18.38;2.72;;;;;;;;;;4990063;28;20907;-58
2021/04/16 06:59:16;;;;;;;17.80;2.28;;;;;;;;;;4990564;28;20065;-55
2021/04/16 07:01:54;;;;;;;13.75;2.53;;;;;;;;;;4990360;28;20175;-57
2021/04/16 07:04:25;;;;;;;17.00;2.35;;;;;;;;;;4989968;28;20620;-56
2021/04/16 07:06:55;;;;;;;13.90;2.78;;;;;;;;;;4989722;28;20038;-58
2021/04/16 07:09:33;;;;;;;13.65;2.42;;;;;;;;;;4988047;28;20038;-57
2021/04/16 07:12:10;;;;;;;12.73;2.63;;;;;;;;;;4990725;28;20053;-57
2021/04/16 07:14:45;;;;;;;17.00;2.83;;;;;;;;;;4990962;28;20053;-58
2021/04/16 07:17:14;;;;;;;14.32;3.50;;;;;;;;;;4989405;28;20038;-57
2021/04/16 07:19:40;;;;;;;12.18;2.83;;;;;;;;;;4969323;28;20037;-58
2021/04/16 07:22:07;;;;;;;29.80;3.72;;;;;;;;;;4990736;28;20598;-58
2021/04/16 07:24:33;;;;;;;16.80;3.25;;;;;;;;;;4990955;28;20085;-58
2021/04/16 07:27:13;;;;;;;17.58;3.08;;;;;;;;;;4990424;28;20031;-58
2021/04/16 07:29:41;;;;;;;33.28;3.28;;;;;;;;;;4988891;28;20084;-58
2021/04/16 07:32:12;;;;;;;20.35;3.00;;;;;;;;;;4989421;28;20073;-58
2021/04/16 07:34:46;;;;;;;22.25;3.42;;;;;;;;;;4989529;28;20049;-58
2021/04/16 07:37:22;;;;;;;16.85;2.95;;;;;;;;;;4987995;28;20034;-56
2021/04/16 07:40:06;;;;;;;17.15;2.30;;;;;;;;;;4988035;28;20042;-57
2021/04/16 07:42:43;;;;;;;13.95;2.28;;;;;;;;;;4988210;28;20098;-58
2021/04/16 07:45:12;;;;;;;15.23;2.55;;;;;;;;;;4989197;28;20407;-57
2021/04/16 07:47:38;;;;;;;20.70;2.85;;;;;;;;;;4987760;28;20050;-58
2021/04/16 07:50:12;;;;;;;19.45;3.17;;;;;;;;;;4987812;28;20105;-58
2021/04/16 07:52:45;;;;;;;18.63;2.63;;;;;;;;;;4988764;28;20065;-57
2021/04/16 07:55:20;;;;;;;12.52;2.35;;;;;;;;;;4990840;28;20104;-57
2021/04/16 07:57:58;;;;;;;20.73;2.63;;;;;;;;;;4990112;28;20048;-58
2021/04/16 08:00:26;;;;;;;20.00;2.50;;;;;;;;;;4986113;28;20049;-57
2021/04/16 08:03:12;;;;;;;16.90;2.22;;;;;;;;;;4989412;28;20061;-57
2021/04/16 08:05:41;;;;;;;24.95;2.83;;;;;;;;;;4944509;28;20121;-58
2021/04/16 08:08:13;;;;;;;20.15;2.50;;;;;;;;;;4989448;28;20454;-57
2021/04/16 08:10:43;;;;;;;13.05;2.75;;;;;;;;;;4969030;28;20069;-57
2021/04/16 08:13:11;;;;;;;14.13;2.22;;;;;;;;;;4987815;28;20487;-56
2021/04/16 08:15:37;;;;;;;20.08;2.50;;;;;;;;;;4990739;28;20043;-58
2021/04/16 08:18:10;;;;;;;13.27;2.30;;;;;;;;;;4992304;28;20545;-56
2021/04/16 08:20:55;;;;;;;23.35;2.20;;;;;;;;;;4988104;28;20057;-58
2021/04/16 08:23:22;;;;;;;11.82;2.30;;;;;;;;;;4972349;28;20305;-59
2021/04/16 08:25:53;;;;;;;12.13;2.05;;;;;;;;;;4989732;28;20403;-58
2021/04/16 08:28:23;;;;;;;14.10;2.70;;;;;;;;;;4988197;28;20116;-58
2021/04/16 08:31:09;;;;;;;11.20;2.25;;;;;;;;;;4987491;28;20054;-57
2021/04/16 08:33:44;;;;;;;18.10;2.10;;;;;;;;;;4987044;28;20037;-59
2021/04/16 08:36:16;;;;;;;12.27;2.58;;;;;;;;;;4990079;28;20042;-59
2021/04/16 08:39:00;;;;;;;8.73;2.35;;;;;;;;;;4987580;28;20038;-59
2021/04/16 08:41:27;;;;;;;18.00;2.65;;;;;;;;;;4985428;28;20074;-63
2021/04/16 08:43:57;;;;;;;15.57;2.80;;;;;;;;;;4986291;28;20050;-58
2021/04/16 08:46:25;;;;;;;15.02;2.90;;;;;;;;;;4987893;28;20053;-59
2021/04/16 08:48:55;;;;;;;15.43;3.20;;;;;;;;;;4989336;28;20046;-55
2021/04/16 08:51:24;;;;;;;13.93;2.67;;;;;;;;;;4985695;28;20058;-59
2021/04/16 08:53:50;;;;;;;13.65;2.85;;;;;;;;;;4987564;28;20133;-55
2021/04/16 08:56:22;;;;;;;15.65;3.08;;;;;;;;;;4986040;28;20042;-58
2021/04/16 08:58:48;;;;;;;17.17;2.80;;;;;;;;;;4972550;28;22022;-57
2021/04/16 09:01:16;;;;;;;15.25;2.80;;;;;;;;;;4987074;28;20049;-56
2021/04/16 09:03:47;;;;;;;16.48;3.10;;;;;;;;;;4985377;28;20088;-57
2021/04/16 09:06:33;;;;;;;20.90;3.28;;;;;;;;;;4987035;28;20057;-55
2021/04/16 09:09:00;;;;;;;11.30;3.40;;;;;;;;;;4984406;28;20038;-57
2021/04/16 09:11:46;;;;;;;15.32;2.60;;;;;;;;;;4985006;28;20045;-56
2021/04/16 09:14:34;;;;;;;10.20;1.80;;;;;;;;;;4973931;28;20030;-58
2021/04/16 09:17:01;;;;;;;9.55;2.25;;;;;;;;;;4985399;28;20034;-56
2021/04/16 09:19:27;;;;;;;135.20;8.88;;;;;;;;;;4986944;28;20085;-58
2021/04/16 09:22:02;;;;;;;77.28;5.43;;;;;;;;;;4984978;28;20064;-59
2021/04/16 09:24:44;;;;;;;51.90;4.65;;;;;;;;;;4986928;28;20188;-57
2021/04/16 09:27:19;;;;;;;34.70;3.63;;;;;;;;;;4986251;28;20045;-55
2021/04/16 09:29:45;;;;;;;21.48;2.92;;;;;;;;;;4984543;28;20070;-58
2021/04/16 09:32:41;;;;;;;34.55;2.60;;;;;;;;;;4985733;28;20890;-54
2021/04/16 09:35:12;;;;;;;16.15;2.85;;;;;;;;;;4971066;28;20120;-58
2021/04/16 09:37:43;;;;;;;22.80;2.25;;;;;;;;;;4985924;28;20045;-56
2021/04/16 09:40:25;;;;;;;15.50;2.38;;;;;;;;;;4986573;28;20675;-57
2021/04/16 09:42:53;;;;;;;21.58;2.65;;;;;;;;;;4987194;28;20046;-58
2021/04/16 09:45:22;;;;;;;23.25;2.90;;;;;;;;;;4987688;28;20038;-58
2021/04/16 09:47:50;;;;;;;18.85;3.00;;;;;;;;;;4987754;28;20046;-58
2021/04/16 09:50:21;;;;;;;27.92;2.50;;;;;;;;;;4983896;28;20046;-58
2021/04/16 09:52:49;;;;;;;19.77;2.65;;;;;;;;;;4985355;28;20617;-57
2021/04/16 09:55:33;;;;;;;15.15;2.67;;;;;;;;;;4987575;28;20041;-55
2021/04/16 09:57:59;;;;;;;29.80;4.00;;;;;;;;;;4986022;28;20034;-54
2021/04/16 10:00:33;;;;;;;21.98;3.13;;;;;;;;;;4986740;28;20093;-58
2021/04/16 10:03:25;;;;;;;31.58;3.33;;;;;;;;;;4989384;28;20124;-57
2021/04/16 10:05:51;;;;;;;20.90;2.38;;;;;;;;;;4950542;28;20710;-55
2021/04/16 10:08:23;;;;;;;23.92;2.28;;;;;;;;;;4988540;28;20068;-54
2021/04/16 10:10:49;;;;;;;21.95;2.03;;;;;;;;;;4989644;28;20462;-56
2021/04/16 10:13:44;;;;;;;9.15;1.80;;;;;;;;;;4989159;28;20050;-55
2021/04/16 10:16:22;;;;;;;16.52;2.10;;;;;;;;;;4971638;28;20042;-56
2021/04/16 10:18:48;;;;;;;9.45;1.60;;;;;;;;;;4988354;28;20120;-57
2021/04/16 10:21:14;;;;;;;11.68;1.80;;;;;;;;;;4990027;28;20145;-57
2021/04/16 10:23:49;;;;;;;9.52;1.90;;;;;;;;;;4988943;28;20038;-58
2021/04/16 11:10:58;;;;;;;7.47;1.90;;;;;;;;;;4988911;28;20289;-54
2021/04/16 11:45:11;;;;;;;9.70;1.88;;;;;;;;;;4985195;28;20410;-54
2021/04/16 12:38:59;;;;;;;;;;;;;;;;;;4989003;28;20461;-58
2021/04/16 12:41:37;;;;;;;18.35;2.80;;;;;;;;;;4987128;28;20306;-56
2021/04/16 12:44:04;;;;;;;24.45;3.08;;;;;;;;;;4988133;28;20037;-57
2021/04/16 12:46:37;;;;;;;16.77;2.72;;;;;;;;;;4988576;28;20033;-53
2021/04/16 12:49:03;;;;;;;14.85;2.63;;;;;;;;;;4988047;28;20439;-57
2021/04/16 12:51:29;;;;;;;14.75;2.97;;;;;;;;;;4985993;28;20057;-57
2021/04/16 12:53:55;;;;;;;13.65;2.92;;;;;;;;;;4989205;28;20038;-53
2021/04/16 12:56:24;;;;;;;18.27;2.70;;;;;;;;;;4995188;28;20096;-54
2021/04/16 12:58:50;;;;;;;18.20;2.72;;;;;;;;;;4996704;28;20058;-52
2021/04/16 13:01:26;;;;;;;17.08;2.50;;;;;;;;;;4987949;28;20759;-57
2021/04/16 13:03:52;;;;;;;14.75;2.35;;;;;;;;;;4968764;28;20049;-56
2021/04/16 13:06:26;;;;;;;19.55;3.38;;;;;;;;;;4987766;28;20045;-56
2021/04/16 13:08:52;;;;;;;16.42;3.13;;;;;;;;;;4987922;28;20054;-54
2021/04/16 13:11:18;;;;;;;20.70;2.45;;;;;;;;;;4987977;28;20050;-56
2021/04/16 13:13:44;;;;;;;10.13;2.55;;;;;;;;;;4987967;28;20049;-56
2021/04/16 13:16:10;;;;;;;20.70;3.20;;;;;;;;;;4988649;28;20038;-56
2021/04/16 13:18:39;;;;;;;14.63;3.15;;;;;;;;;;4986894;28;20062;-56
2021/04/16 13:21:07;;;;;;;12.85;2.58;;;;;;;;;;4985624;28;20100;-55
2021/04/16 13:23:33;;;;;;;20.33;2.95;;;;;;;;;;4984373;28;20046;-57
2021/04/16 13:25:59;;;;;;;15.50;4.15;;;;;;;;;;4978555;28;20042;-56
2021/04/16 13:28:24;;;;;;;13.65;3.00;;;;;;;;;;4978382;28;20065;-58
2021/04/16 13:30:50;;;;;;;17.92;2.55;;;;;;;;;;4977670;28;20117;-57
2021/04/16 13:33:19;;;;;;;17.75;3.05;;;;;;;;;;4978044;28;20047;-56
2021/04/16 13:35:54;;;;;;;14.65;2.20;;;;;;;;;;4979148;28;20049;-57
2021/04/16 13:38:22;;;;;;;8.57;1.98;;;;;;;;;;4983252;28;20049;-54
2021/04/16 13:40:48;;;;;;;17.70;2.30;;;;;;;;;;4980620;28;20672;-57
2021/04/16 13:43:14;;;;;;;19.27;2.88;;;;;;;;;;4983118;28;20080;-57
2021/04/16 13:45:40;;;;;;;23.83;2.20;;;;;;;;;;4981970;28;20133;-57
2021/04/16 13:48:06;;;;;;;17.52;2.47;;;;;;;;;;4982361;28;20030;-58
2021/04/16 13:50:33;;;;;;;18.40;2.10;;;;;;;;;;4980713;28;20050;-59
2021/04/16 13:52:59;;;;;;;29.13;2.40;;;;;;;;;;4981855;28;20054;-55
2021/04/16 13:55:25;;;;;;;18.73;2.75;;;;;;;;;;4981751;28;20538;-54
2021/04/16 13:57:51;;;;;;;12.25;2.10;;;;;;;;;;4980970;28;20642;-58
2021/04/16 14:00:19;;;;;;;16.55;2.15;;;;;;;;;;4979616;28;20034;-57
2021/04/16 14:02:49;;;;;;;12.40;2.45;;;;;;;;;;4981971;28;20057;-56
2021/04/16 14:05:19;;;;;;;11.80;2.13;;;;;;;;;;4980586;28;20321;-56
2021/04/16 14:07:46;;;;;;;23.10;3.25;;;;;;;;;;4979920;28;20034;-57
2021/04/16 14:10:13;;;;;;;25.77;2.95;;;;;;;;;;4980796;28;20053;-57
2021/04/16 14:12:39;;;;;;;19.85;3.15;;;;;;;;;;4980582;28;20051;-54
2021/04/16 14:15:05;;;;;;;15.68;2.50;;;;;;;;;;4982159;28;20300;-56
2021/04/16 14:17:37;;;;;;;19.90;2.72;;;;;;;;;;4981568;28;20221;-57
2021/04/16 14:20:10;;;;;;;22.20;2.47;;;;;;;;;;4981021;28;20042;-56
2021/04/16 14:22:41;;;;;;;16.77;2.53;;;;;;;;;;4973414;28;20090;-57
2021/04/16 14:25:11;;;;;;;16.40;2.78;;;;;;;;;;4980798;28;20050;-56
2021/04/16 14:27:37;;;;;;;15.05;2.28;;;;;;;;;;4981346;28;20076;-57
2021/04/16 14:30:07;;;;;;;22.40;2.53;;;;;;;;;;4981584;28;21992;-57
2021/04/16 14:32:33;;;;;;;14.85;2.70;;;;;;;;;;4982180;28;20061;-57
2021/04/16 14:34:59;;;;;;;13.05;2.33;;;;;;;;;;4980715;28;20573;-57
2021/04/16 14:37:25;;;;;;;16.33;2.40;;;;;;;;;;4979674;28;20038;-54
2021/04/16 14:39:51;;;;;;;18.58;2.50;;;;;;;;;;4981824;28;20046;-56
2021/04/16 14:42:18;;;;;;;20.85;2.85;;;;;;;;;;4979877;28;20058;-55
2021/04/16 14:44:44;;;;;;;13.75;2.53;;;;;;;;;;4980647;28;20089;-55
2021/04/16 14:47:09;;;;;;;19.08;2.38;;;;;;;;;;4980503;28;20046;-57
2021/04/16 14:49:35;;;;;;;21.33;2.40;;;;;;;;;;4978135;28;20141;-56
2021/04/16 14:52:03;;;;;;;18.58;2.40;;;;;;;;;;4979700;28;20385;-54
2021/04/16 14:54:33;;;;;;;38.53;3.35;;;;;;;;;;4962345;28;20121;-56
2021/04/16 14:57:00;;;;;;;22.55;3.20;;;;;;;;;;4969612;28;20341;-56
2021/04/16 14:59:29;;;;;;;18.65;3.00;;;;;;;;;;4979609;28;20047;-54
2021/04/16 15:01:56;;;;;;;12.43;2.63;;;;;;;;;;4969618;28;20160;-57
2021/04/16 15:04:22;;;;;;;15.90;3.20;;;;;;;;;;4966762;28;20048;-55
2021/04/16 15:06:51;;;;;;;26.05;2.92;;;;;;;;;;4964342;28;20395;-56
2021/04/16 15:09:18;;;;;;;17.23;2.70;;;;;;;;;;4966058;28;20121;-55
2021/04/16 15:11:45;;;;;;;16.02;2.75;;;;;;;;;;4975947;28;20054;-54
2021/04/16 15:14:22;;;;;;;19.80;2.47;;;;;;;;;;4981160;28;20034;-58
2021/04/16 15:16:51;;;;;;;15.20;2.50;;;;;;;;;;4979586;28;20041;-57
2021/04/16 15:19:17;;;;;;;19.13;3.05;;;;;;;;;;4979287;28;20038;-58
2021/04/16 15:21:43;;;;;;;9.35;2.33;;;;;;;;;;4978331;28;20608;-56
2021/04/16 15:24:09;;;;;;;16.58;2.72;;;;;;;;;;4980326;28;20207;-57
2021/04/16 15:26:35;;;;;;;14.77;2.60;;;;;;;;;;4960592;28;20200;-51
2021/04/16 15:29:04;;;;;;;15.60;3.92;;;;;;;;;;4979320;28;20042;-57
2021/04/16 15:31:40;;;;;;;16.00;2.92;;;;;;;;;;4976314;28;20050;-57
2021/04/16 15:47:38;;;;;;;9.77;2.17;;;;;;;;;;4977942;28;20178;-57
2021/04/16 15:50:06;;;;;;;13.05;1.70;;;;;;;;;;4978552;28;20558;-58
2021/04/16 15:52:32;;;;;;;15.02;2.22;;;;;;;;;;4979208;28;20053;-56
2021/04/16 15:54:57;;;;;;;19.10;2.30;;;;;;;;;;4964667;28;20163;-56
2021/04/16 15:57:23;;;;;;;12.80;2.53;;;;;;;;;;4978455;28;20037;-58
2021/04/16 15:59:49;;;;;;;18.02;2.67;;;;;;;;;;4976808;28;20177;-56
2021/04/16 16:02:17;;;;;;;11.43;2.35;;;;;;;;;;4959809;28;20058;-55
2021/04/16 16:04:43;;;;;;;12.98;1.95;;;;;;;;;;4979073;28;20038;-55
2021/04/16 16:07:09;;;;;;;10.63;2.08;;;;;;;;;;4979539;28;20038;-55
2021/04/16 16:09:35;;;;;;;8.73;1.90;;;;;;;;;;4975733;28;20049;-54
2021/04/16 16:12:07;;;;;;;9.23;2.20;;;;;;;;;;4983132;28;20070;-57
2021/04/16 16:14:40;;;;;;;9.25;2.00;;;;;;;;;;4962759;28;20545;-54
2021/04/16 16:17:09;;;;;;;12.00;2.05;;;;;;;;;;4979975;28;20045;-57
2021/04/16 16:19:34;;;;;;;19.02;3.08;;;;;;;;;;4979395;28;20041;-56
2021/04/16 16:22:00;;;;;;;56.70;4.10;;;;;;;;;;4978420;28;20558;-55
2021/04/16 16:24:26;;;;;;;12.70;1.92;;;;;;;;;;4977867;28;20148;-56
2021/04/16 16:26:52;;;;;;;16.75;2.20;;;;;;;;;;4979591;28;20443;-55
2021/04/16 16:29:23;;;;;;;11.98;2.25;;;;;;;;;;4959585;28;20081;-57
2021/04/16 16:31:49;;;;;;;15.55;1.80;;;;;;;;;;4977942;28;20080;-56
2021/04/16 16:34:16;;;;;;;10.50;1.88;;;;;;;;;;4961010;28;20065;-57
2021/04/16 16:36:42;;;;;;;10.27;1.80;;;;;;;;;;4959810;28;20049;-55
2021/04/16 16:39:08;;;;;;;6.88;1.67;;;;;;;;;;4980756;28;20484;-54
2021/04/16 16:41:35;;;;;;;8.65;2.00;;;;;;;;;;4976146;28;20061;-53
2021/04/16 16:44:01;;;;;;;9.18;2.03;;;;;;;;;;4976043;28;20050;-58
2021/04/16 16:46:34;;;;;;;9.05;1.95;;;;;;;;;;4976399;28;20136;-55
2021/04/16 16:49:00;;;;;;;10.05;1.77;;;;;;;;;;4976847;28;20098;-57
2021/04/16 16:51:27;;;;;;;7.75;2.10;;;;;;;;;;4977652;28;20652;-54
2021/04/16 16:53:56;;;;;;;8.73;1.90;;;;;;;;;;4978695;28;20592;-57
2021/04/16 16:56:28;;;;;;;9.43;1.77;;;;;;;;;;4978152;28;20046;-56
2021/04/16 16:58:55;;;;;;;7.53;1.77;;;;;;;;;;4978567;28;20049;-54
2021/04/16 17:01:22;;;;;;;11.00;2.10;;;;;;;;;;4976567;28;20631;-57
2021/04/16 17:03:48;;;;;;;7.60;1.70;;;;;;;;;;4961446;28;20042;-56
2021/04/16 17:06:15;;;;;;;6.88;2.45;;;;;;;;;;4979258;28;20395;-57